Time;durP1;ratioP1;P1;durP2;ratioP2;P2;SDS_P1;SDS_P2;PMS_P1;PMS_P2;Temp;Humidity;BMP_temperature;BMP_pressure;BME280_temperature;BME280_humidity;BME280_pressure;Samples;Min_cycle;Max_cycle;Signal;HPM_P1;HPM_P2
2022/03/22 00:00:18;;;;;;;32.22;22.13;;;6.70;99.90;;;;;;5096797;28;20044;-70
2022/03/22 00:02:44;;;;;;;28.85;21.45;;;6.70;99.90;;;;;;5095039;28;20087;-70
2022/03/22 00:05:10;;;;;;;32.88;22.73;;;6.60;99.90;;;;;;5096365;28;20483;-70
2022/03/22 00:07:36;;;;;;;30.88;22.10;;;6.50;99.90;;;;;;5095267;28;20052;-69
2022/03/22 00:10:03;;;;;;;29.65;21.98;;;6.60;99.90;;;;;;5096606;28;20044;-70
2022/03/22 00:12:28;;;;;;;31.73;21.70;;;6.60;99.90;;;;;;5095153;28;20110;-70
2022/03/22 00:14:54;;;;;;;29.23;21.23;;;6.50;99.90;;;;;;5095388;28;20087;-69
2022/03/22 00:17:21;;;;;;;29.65;20.45;;;6.50;99.90;;;;;;5096357;28;20127;-69
2022/03/22 00:19:47;;;;;;;30.02;21.25;;;6.60;99.90;;;;;;5096284;28;20044;-69
2022/03/22 00:22:14;;;;;;;30.00;21.15;;;6.40;99.90;;;;;;5095280;28;20044;-69
2022/03/22 00:24:41;;;;;;;33.55;21.48;;;6.60;99.90;;;;;;5096156;28;20094;-69
2022/03/22 00:27:07;;;;;;;30.77;21.80;;;6.50;99.90;;;;;;5078172;28;20043;-69
2022/03/22 00:29:34;;;;;;;31.98;22.27;;;6.50;99.90;;;;;;5096119;28;20047;-69
2022/03/22 00:32:00;;;;;;;30.35;22.45;;;6.40;99.90;;;;;;5094434;28;20497;-69
2022/03/22 00:34:25;;;;;;;30.23;21.35;;;6.40;99.90;;;;;;5096038;28;20051;-69
2022/03/22 00:36:52;;;;;;;32.28;22.80;;;6.40;99.90;;;;;;5077964;28;20044;-69
2022/03/22 00:39:18;;;;;;;31.85;22.42;;;6.30;99.90;;;;;;5094886;28;20059;-69
2022/03/22 00:41:45;;;;;;;32.15;22.50;;;6.40;99.90;;;;;;5096178;28;20044;-70
2022/03/22 00:44:11;;;;;;;34.65;23.23;;;6.30;99.90;;;;;;5095828;28;20044;-69
2022/03/22 00:46:37;;;;;;;31.98;21.90;;;6.30;99.90;;;;;;5095577;28;20059;-70
2022/03/22 00:49:03;;;;;;;32.95;22.48;;;6.40;99.90;;;;;;5095752;28;20075;-69
2022/03/22 00:51:29;;;;;;;32.95;23.73;;;6.30;99.90;;;;;;5096081;28;20044;-69
2022/03/22 00:53:59;;;;;;;31.77;22.88;;;6.30;99.90;;;;;;5078027;28;20051;-70
2022/03/22 00:56:25;;;;;;;32.30;22.90;;;6.30;99.90;;;;;;5094714;28;20051;-70
2022/03/22 01:00:01;;;;;;;34.17;23.75;;;6.40;99.90;;;;;;5095677;28;20434;-70
2022/03/22 01:01:37;;;;;;;28.90;22.25;;;6.20;99.90;;;;;;5094435;28;20094;-69
2022/03/22 01:04:04;;;;;;;32.90;23.30;;;6.30;99.90;;;;;;5095393;28;20083;-70
2022/03/22 01:06:30;;;;;;;28.55;21.25;;;6.20;99.90;;;;;;5095358;28;20136;-70
2022/03/22 01:08:56;;;;;;;32.85;23.50;;;6.10;99.90;;;;;;5094242;28;20044;-70
2022/03/22 01:11:22;;;;;;;33.05;22.63;;;6.40;99.90;;;;;;5095003;28;20040;-70
2022/03/22 01:13:49;;;;;;;31.75;23.63;;;6.20;99.90;;;;;;5095252;28;20050;-69
2022/03/22 01:16:15;;;;;;;32.78;22.23;;;6.20;99.90;;;;;;5095253;28;20078;-70
2022/03/22 01:18:41;;;;;;;31.40;22.55;;;6.20;99.90;;;;;;5095394;28;20054;-69
2022/03/22 01:21:08;;;;;;;31.15;22.25;;;6.20;99.90;;;;;;5095102;28;20069;-70
2022/03/22 01:23:34;;;;;;;31.92;23.17;;;6.20;99.90;;;;;;5093724;28;20059;-70
2022/03/22 01:26:00;;;;;;;33.75;23.15;;;6.20;99.90;;;;;;5095011;28;20044;-70
2022/03/22 01:28:26;;;;;;;28.35;20.30;;;6.10;99.90;;;;;;5094884;28;20460;-69
2022/03/22 01:30:53;;;;;;;32.40;22.38;;;6.20;99.90;;;;;;5094961;28;20084;-70
2022/03/22 01:33:18;;;;;;;32.47;22.50;;;6.10;99.90;;;;;;5076421;28;20067;-69
2022/03/22 01:35:44;;;;;;;31.45;22.95;;;6.10;99.90;;;;;;5094792;28;20044;-70
2022/03/22 01:38:11;;;;;;;33.80;24.48;;;6.20;99.90;;;;;;5094804;28;20047;-69
2022/03/22 01:40:37;;;;;;;33.55;23.42;;;6.20;99.90;;;;;;5093747;28;20419;-69
2022/03/22 01:43:04;;;;;;;32.75;22.73;;;6.20;99.90;;;;;;5094688;28;20044;-69
2022/03/22 01:45:30;;;;;;;31.73;23.02;;;6.10;99.90;;;;;;5094764;28;20052;-69
2022/03/22 01:48:02;;;;;;;31.95;22.88;;;6.10;99.90;;;;;;5093127;28;20524;-69
2022/03/22 01:50:29;;;;;;;31.65;23.55;;;6.20;99.90;;;;;;5094530;28;20093;-69
2022/03/22 01:52:57;;;;;;;33.47;24.25;;;6.30;99.90;;;;;;5094470;28;20047;-69
2022/03/22 01:55:26;;;;;;;31.92;23.65;;;6.20;99.90;;;;;;5094481;28;20130;-69
2022/03/22 01:57:52;;;;;;;33.78;23.40;;;6.20;99.90;;;;;;5094306;28;20090;-70
2022/03/22 02:00:20;;;;;;;31.80;23.15;;;6.10;99.90;;;;;;5094079;28;20492;-70
2022/03/22 02:05:52;;;;;;;32.75;23.90;;;6.20;99.90;;;;;;5094476;28;20404;-70
2022/03/22 02:08:20;;;;;;;37.20;25.70;;;6.20;99.90;;;;;;5094510;28;20043;-70
2022/03/22 02:10:47;;;;;;;32.75;23.95;;;6.20;99.90;;;;;;5092735;28;20085;-70
2022/03/22 02:13:13;;;;;;;35.60;24.92;;;6.10;99.90;;;;;;5093193;28;20040;-69
2022/03/22 02:15:39;;;;;;;30.95;23.15;;;6.10;99.90;;;;;;5094086;28;20131;-69
2022/03/22 02:18:05;;;;;;;32.15;23.98;;;6.00;99.90;;;;;;5093636;28;20127;-69
2022/03/22 02:20:31;;;;;;;31.65;23.45;;;6.10;99.90;;;;;;5076405;28;20048;-69
2022/03/22 02:23:10;;;;;;;32.03;23.25;;;6.10;99.90;;;;;;5094376;28;20051;-69
2022/03/22 02:25:35;;;;;;;32.72;22.92;;;6.00;99.90;;;;;;5093980;28;20109;-69
2022/03/22 02:28:05;;;;;;;34.47;23.08;;;6.00;99.90;;;;;;5075831;28;20084;-70
2022/03/22 02:30:31;;;;;;;36.38;24.80;;;6.00;99.90;;;;;;5093479;28;20388;-69
2022/03/22 02:33:00;;;;;;;35.92;24.77;;;5.90;99.90;;;;;;5092052;28;20048;-69
2022/03/22 02:35:28;;;;;;;34.03;23.45;;;6.10;99.90;;;;;;5093818;28;20040;-69
2022/03/22 02:37:54;;;;;;;33.75;24.10;;;5.90;99.90;;;;;;5075956;28;20044;-69
2022/03/22 02:40:20;;;;;;;35.22;23.92;;;6.00;99.90;;;;;;5094129;28;20055;-70
2022/03/22 02:42:49;;;;;;;33.63;23.77;;;6.00;99.90;;;;;;5093739;28;20043;-70
2022/03/22 02:45:15;;;;;;;32.63;23.77;;;5.90;99.90;;;;;;5093736;28;20131;-70
2022/03/22 02:47:42;;;;;;;33.80;23.23;;;5.90;99.90;;;;;;5093542;28;20052;-69
2022/03/22 02:50:09;;;;;;;31.52;22.92;;;6.00;99.90;;;;;;5092676;28;20048;-70
2022/03/22 02:52:35;;;;;;;30.80;21.75;;;5.80;99.90;;;;;;5093636;28;20135;-69
2022/03/22 02:55:03;;;;;;;34.03;23.80;;;5.80;99.90;;;;;;5093289;28;20495;-70
2022/03/22 02:57:29;;;;;;;33.42;24.20;;;5.80;99.90;;;;;;5093310;28;20052;-70
2022/03/22 02:59:55;;;;;;;32.90;22.95;;;5.80;99.90;;;;;;5093531;28;20085;-70
2022/03/22 03:02:20;;;;;;;35.65;23.90;;;5.80;99.90;;;;;;5092934;28;20086;-69
2022/03/22 03:04:46;;;;;;;34.95;24.63;;;5.80;99.90;;;;;;5093522;28;20040;-70
2022/03/22 03:07:12;;;;;;;34.58;24.20;;;5.80;99.90;;;;;;5092203;28;20044;-69
2022/03/22 03:09:38;;;;;;;35.80;24.45;;;5.80;99.90;;;;;;5093512;28;20127;-70
2022/03/22 03:12:05;;;;;;;33.33;24.55;;;5.80;99.90;;;;;;5093502;28;20052;-69
2022/03/22 03:14:40;;;;;;;34.70;24.52;;;5.70;99.90;;;;;;5092530;28;20387;-69
2022/03/22 03:17:10;;;;;;;35.85;24.15;;;5.70;99.90;;;;;;5093670;28;20070;-70
2022/03/22 03:19:36;;;;;;;31.27;22.92;;;5.80;99.90;;;;;;5093516;28;20051;-69
2022/03/22 03:22:03;;;;;;;36.50;25.63;;;5.70;99.90;;;;;;5092397;28;20044;-70
2022/03/22 03:24:30;;;;;;;32.13;23.42;;;5.60;99.90;;;;;;5093086;28;20048;-69
2022/03/22 03:26:56;;;;;;;35.28;24.33;;;5.60;99.90;;;;;;5093579;28;20052;-70
2022/03/22 03:29:23;;;;;;;34.22;24.67;;;5.60;99.90;;;;;;5094598;28;20480;-70
2022/03/22 03:31:48;;;;;;;31.95;23.92;;;5.70;99.90;;;;;;5078777;28;20048;-69
2022/03/22 03:34:15;;;;;;;36.92;24.50;;;5.60;99.90;;;;;;5097168;28;20074;-70
2022/03/22 03:36:41;;;;;;;36.20;23.80;;;5.70;99.90;;;;;;5096614;28;20052;-69
2022/03/22 03:39:08;;;;;;;34.70;23.80;;;5.70;99.90;;;;;;5097068;28;20047;-69
2022/03/22 03:47:08;;;;;;;33.60;23.85;;;5.60;99.90;;;;;;5096719;28;20048;-69
2022/03/22 03:49:42;;;;;;;34.33;24.65;;;5.70;99.90;;;;;;5096891;28;20052;-69
2022/03/22 03:52:10;;;;;;;36.88;24.38;;;5.70;99.90;;;;;;5096812;28;20048;-70
2022/03/22 03:54:36;;;;;;;36.88;25.25;;;5.50;99.90;;;;;;5096616;28;20529;-70
2022/03/22 03:57:03;;;;;;;35.55;24.55;;;5.70;99.90;;;;;;5096774;28;20040;-70
2022/03/22 03:59:29;;;;;;;37.88;24.70;;;5.70;99.90;;;;;;5096852;28;20048;-70
2022/03/22 04:01:55;;;;;;;31.58;23.10;;;5.70;99.90;;;;;;5078199;28;20055;-70
2022/03/22 04:04:21;;;;;;;34.30;24.48;;;5.70;99.90;;;;;;5096385;28;20480;-70
2022/03/22 04:06:47;;;;;;;32.40;23.67;;;5.80;99.90;;;;;;5097298;28;20047;-70
2022/03/22 04:09:14;;;;;;;34.70;23.70;;;5.70;99.90;;;;;;5096545;28;20533;-70
2022/03/22 04:11:40;;;;;;;33.80;23.83;;;5.80;99.90;;;;;;5096499;28;20392;-70
2022/03/22 04:14:06;;;;;;;36.72;23.77;;;5.80;99.90;;;;;;5096427;28;20098;-70
2022/03/22 04:16:32;;;;;;;34.72;23.92;;;5.70;99.90;;;;;;5096042;28;20504;-70
2022/03/22 04:18:58;;;;;;;32.22;23.45;;;5.60;99.90;;;;;;5078531;28;20079;-69
2022/03/22 04:21:24;;;;;;;33.08;23.63;;;5.70;99.90;;;;;;5095101;28;20050;-70
2022/03/22 04:23:49;;;;;;;39.30;23.80;;;5.70;99.90;;;;;;5096310;28;20054;-70
2022/03/22 04:26:15;;;;;;;32.50;23.08;;;5.80;99.90;;;;;;5096729;28;20132;-69
2022/03/22 04:34:10;;;;;;;34.75;23.92;;;5.70;99.90;;;;;;5096056;28;20139;-69
2022/03/22 04:36:36;;;;;;;33.88;24.23;;;5.70;99.90;;;;;;5094870;28;20091;-69
2022/03/22 04:39:02;;;;;;;36.78;24.15;;;5.80;99.90;;;;;;5095869;28;20093;-69
2022/03/22 04:41:29;;;;;;;34.95;23.77;;;5.80;99.90;;;;;;5095605;28;20479;-70
2022/03/22 04:43:55;;;;;;;33.33;23.35;;;5.80;99.90;;;;;;5095885;28;20404;-70
2022/03/22 04:46:20;;;;;;;36.22;25.20;;;5.70;99.90;;;;;;5095409;28;20131;-69
2022/03/22 04:48:47;;;;;;;36.10;24.17;;;5.70;99.90;;;;;;5095896;28;20123;-69
2022/03/22 04:56:48;;;;;;;35.67;24.00;;;5.80;99.90;;;;;;5095570;28;20040;-70
2022/03/22 04:59:19;;;;;;;34.28;24.02;;;5.70;99.90;;;;;;5095623;28;20514;-70
2022/03/22 05:01:45;;;;;;;32.53;24.08;;;5.70;99.90;;;;;;5093969;28;20491;-69
2022/03/22 05:04:11;;;;;;;34.92;24.90;;;5.60;99.90;;;;;;5095417;28;20048;-69
2022/03/22 05:06:40;;;;;;;34.33;24.23;;;5.70;99.90;;;;;;5095337;28;20454;-70
2022/03/22 05:09:07;;;;;;;35.45;24.20;;;5.80;99.90;;;;;;5094407;28;20476;-69
2022/03/22 05:11:34;;;;;;;34.25;24.85;;;5.70;99.90;;;;;;5094319;28;20047;-69
2022/03/22 05:14:00;;;;;;;35.50;24.15;;;5.60;99.90;;;;;;5095266;28;20412;-69
2022/03/22 05:16:26;;;;;;;33.05;23.48;;;5.70;99.90;;;;;;5094229;28;20055;-69
2022/03/22 05:18:53;;;;;;;33.88;22.92;;;5.60;99.90;;;;;;5095219;28;20488;-70
2022/03/22 05:21:19;;;;;;;34.97;24.20;;;5.70;99.90;;;;;;5094196;28;20389;-69
2022/03/22 05:23:45;;;;;;;33.13;23.20;;;5.60;99.90;;;;;;5095081;28;20083;-69
2022/03/22 05:26:12;;;;;;;35.75;24.15;;;5.50;99.90;;;;;;5094912;28;20127;-69
2022/03/22 05:28:39;;;;;;;31.85;23.45;;;5.50;99.90;;;;;;5094813;28;20083;-70
2022/03/22 05:31:08;;;;;;;36.08;23.45;;;5.50;99.90;;;;;;5094891;28;20048;-70
2022/03/22 05:33:33;;;;;;;33.47;23.70;;;5.40;99.90;;;;;;5094262;28;20055;-69
2022/03/22 05:36:00;;;;;;;35.90;24.33;;;5.50;99.90;;;;;;5093626;28;20052;-69
2022/03/22 05:38:26;;;;;;;32.65;23.23;;;5.40;99.90;;;;;;5093509;28;20487;-69
2022/03/22 05:40:54;;;;;;;34.85;23.88;;;5.40;99.90;;;;;;5094740;28;20434;-69
2022/03/22 05:43:20;;;;;;;33.45;22.88;;;5.40;99.90;;;;;;5094594;28;20052;-69
2022/03/22 05:45:48;;;;;;;35.67;24.17;;;5.50;99.90;;;;;;5076860;28;20055;-69
2022/03/22 05:48:15;;;;;;;35.05;23.75;;;5.50;99.90;;;;;;5094130;28;20535;-70
2022/03/22 05:50:41;;;;;;;32.97;23.95;;;5.40;99.90;;;;;;5094251;28;20048;-70
2022/03/22 05:53:07;;;;;;;33.78;23.85;;;5.30;99.90;;;;;;5092214;28;20058;-69
2022/03/22 05:55:33;;;;;;;33.95;23.10;;;5.40;99.90;;;;;;5094458;28;20575;-70
2022/03/22 05:57:59;;;;;;;35.10;23.67;;;5.30;99.90;;;;;;5076657;28;20123;-70
2022/03/22 06:00:25;;;;;;;33.88;23.60;;;5.40;99.90;;;;;;5094261;28;20044;-70
2022/03/22 06:02:50;;;;;;;32.97;23.50;;;5.40;99.90;;;;;;5093736;28;20051;-69
2022/03/22 06:05:16;;;;;;;36.78;23.85;;;5.50;99.90;;;;;;5093153;28;20097;-70
2022/03/22 06:07:43;;;;;;;32.30;22.63;;;5.40;99.90;;;;;;5076412;28;20044;-69
2022/03/22 06:10:12;;;;;;;34.17;24.25;;;5.30;99.90;;;;;;5092941;28;20077;-70
2022/03/22 06:12:52;;;;;;;33.08;23.40;;;5.40;99.90;;;;;;5094489;28;20094;-69
2022/03/22 06:15:29;;;;;;;32.25;22.75;;;5.50;99.90;;;;;;5093280;28;20051;-69
2022/03/22 06:18:07;;;;;;;33.08;23.58;;;5.40;99.90;;;;;;5094170;28;20044;-69
2022/03/22 06:20:36;;;;;;;35.45;24.58;;;5.40;99.90;;;;;;5092775;28;20139;-69
2022/03/22 06:23:05;;;;;;;32.85;23.48;;;5.70;99.90;;;;;;5093161;28;20047;-70
2022/03/22 06:25:31;;;;;;;32.00;23.40;;;5.50;99.90;;;;;;5093966;28;20054;-70
2022/03/22 06:27:57;;;;;;;34.28;24.15;;;5.60;99.90;;;;;;5092316;28;20040;-69
2022/03/22 06:30:24;;;;;;;35.75;22.42;;;5.50;99.90;;;;;;5093932;28;20073;-70
2022/03/22 06:32:54;;;;;;;33.40;22.45;;;5.50;99.90;;;;;;5092115;28;20073;-69
2022/03/22 06:35:25;;;;;;;34.35;23.23;;;5.60;99.90;;;;;;5093579;28;20511;-70
2022/03/22 06:37:51;;;;;;;33.60;23.13;;;5.60;99.90;;;;;;5092321;28;20044;-70
2022/03/22 06:40:21;;;;;;;34.50;23.52;;;5.70;99.90;;;;;;5093711;28;20047;-69
2022/03/22 06:42:47;;;;;;;35.10;24.05;;;5.60;99.90;;;;;;5093883;28;20036;-69
2022/03/22 06:45:14;;;;;;;33.20;22.65;;;5.70;99.90;;;;;;5093673;28;20058;-70
2022/03/22 06:47:42;;;;;;;35.33;23.63;;;5.90;99.90;;;;;;5093589;28;20134;-69
2022/03/22 06:50:13;;;;;;;35.03;23.95;;;5.60;99.90;;;;;;5093648;28;20048;-69
2022/03/22 06:52:39;;;;;;;31.17;22.10;;;5.80;99.90;;;;;;5093659;28;20178;-70
2022/03/22 06:55:07;;;;;;;30.20;22.27;;;6.00;99.90;;;;;;5093897;28;20192;-70
2022/03/22 06:57:33;;;;;;;32.67;23.30;;;5.80;99.90;;;;;;5093582;28;20392;-70
2022/03/22 07:00:00;;;;;;;34.03;22.33;;;6.00;99.90;;;;;;5092443;28;20047;-70
2022/03/22 07:02:26;;;;;;;33.70;23.10;;;6.00;99.90;;;;;;5092986;28;20047;-70
2022/03/22 07:04:52;;;;;;;32.95;22.83;;;6.10;99.90;;;;;;5097566;28;20059;-70
2022/03/22 07:07:18;;;;;;;35.50;24.17;;;6.00;99.90;;;;;;5097652;28;20040;-70
2022/03/22 07:09:44;;;;;;;34.35;23.83;;;6.20;99.90;;;;;;5097668;28;20126;-70
2022/03/22 07:12:11;;;;;;;34.78;22.90;;;6.30;99.90;;;;;;5098237;28;20133;-70
2022/03/22 07:14:40;;;;;;;30.25;22.02;;;6.30;99.90;;;;;;5097565;28;20044;-69
2022/03/22 07:17:08;;;;;;;33.13;23.30;;;6.40;99.90;;;;;;5096511;28;20056;-69
2022/03/22 07:19:35;;;;;;;32.78;20.67;;;6.40;99.90;;;;;;5097576;28;20105;-69
2022/03/22 07:22:01;;;;;;;34.85;23.67;;;6.50;99.90;;;;;;5097423;28;20450;-69
2022/03/22 07:24:27;;;;;;;34.13;22.60;;;6.70;99.90;;;;;;5097377;28;20044;-69
2022/03/22 07:26:53;;;;;;;35.95;22.70;;;6.60;99.90;;;;;;5097212;28;20039;-69
2022/03/22 07:29:19;;;;;;;33.33;21.40;;;6.70;99.90;;;;;;5097262;28;20040;-70
2022/03/22 07:31:44;;;;;;;31.70;21.50;;;6.80;99.90;;;;;;5095524;28;20048;-69
2022/03/22 07:34:14;;;;;;;31.20;20.52;;;6.90;99.90;;;;;;5097425;28;20402;-69
2022/03/22 07:36:40;;;;;;;31.10;20.15;;;7.00;99.90;;;;;;5097324;28;20478;-69
2022/03/22 07:39:10;;;;;;;34.53;22.90;;;7.00;99.90;;;;;;5096111;28;20048;-69
2022/03/22 07:41:38;;;;;;;30.40;20.92;;;7.20;99.90;;;;;;5097008;28;20043;-69
2022/03/22 07:44:07;;;;;;;31.35;20.98;;;7.10;99.90;;;;;;5097579;28;20101;-69
2022/03/22 07:46:33;;;;;;;30.20;20.48;;;7.40;99.90;;;;;;5096588;28;20051;-69
2022/03/22 07:54:28;;;;;;;30.00;20.48;;;7.40;99.90;;;;;;5097118;28;20052;-70
2022/03/22 07:56:54;;;;;;;33.00;22.08;;;7.50;99.90;;;;;;5096753;28;20369;-69
2022/03/22 07:59:20;;;;;;;33.75;21.10;;;7.50;99.90;;;;;;5095751;28;20395;-70
2022/03/22 08:01:47;;;;;;;36.67;21.40;;;7.60;99.90;;;;;;5096078;28;20043;-69
2022/03/22 08:04:12;;;;;;;28.33;19.58;;;7.70;99.90;;;;;;5096599;28;20077;-69
2022/03/22 08:06:39;;;;;;;29.13;19.98;;;7.60;99.90;;;;;;5096470;28;20484;-70
2022/03/22 08:09:05;;;;;;;30.50;20.85;;;7.90;99.90;;;;;;5096557;28;20050;-70
2022/03/22 08:11:31;;;;;;;28.58;20.85;;;7.80;99.90;;;;;;5096364;28;20044;-69
2022/03/22 08:13:59;;;;;;;29.80;20.60;;;7.90;99.90;;;;;;5096777;28;20043;-70
2022/03/22 08:16:26;;;;;;;30.45;20.42;;;8.00;99.90;;;;;;5094630;28;20401;-70
2022/03/22 08:18:52;;;;;;;27.58;19.45;;;8.10;99.90;;;;;;5096416;28;20069;-70
2022/03/22 08:21:19;;;;;;;33.78;21.30;;;8.10;99.90;;;;;;5096579;28;20087;-70
2022/03/22 08:23:45;;;;;;;29.45;19.60;;;8.10;99.90;;;;;;5095432;28;20063;-70
2022/03/22 08:26:11;;;;;;;29.85;20.70;;;8.30;99.90;;;;;;5096994;28;20044;-70
2022/03/22 08:28:36;;;;;;;30.70;20.35;;;8.40;99.90;;;;;;5096188;28;20044;-70
2022/03/22 08:31:03;;;;;;;31.80;20.73;;;8.50;99.90;;;;;;5096251;28;20066;-69
2022/03/22 08:33:29;;;;;;;30.88;20.35;;;8.50;99.90;;;;;;5094804;28;20047;-71
2022/03/22 08:35:54;;;;;;;28.10;19.83;;;8.60;99.90;;;;;;5095583;28;20052;-70
2022/03/22 08:38:21;;;;;;;29.38;20.10;;;8.70;99.90;;;;;;5095133;28;20052;-69
2022/03/22 08:40:48;;;;;;;30.17;19.48;;;8.70;99.90;;;;;;5096047;28;20048;-71
2022/03/22 08:43:14;;;;;;;29.95;20.13;;;8.60;99.90;;;;;;5096556;28;20087;-69
2022/03/22 08:45:40;;;;;;;27.65;20.55;;;8.90;99.90;;;;;;5096377;28;20083;-70
2022/03/22 08:48:11;;;;;;;29.77;19.98;;;8.90;99.90;;;;;;5095355;28;20516;-69
2022/03/22 08:50:39;;;;;;;28.25;20.20;;;8.90;99.90;;;;;;5096003;28;20052;-71
2022/03/22 08:53:06;;;;;;;28.67;19.27;;;9.00;99.90;;;;;;5095836;28;20048;-70
2022/03/22 08:55:33;;;;;;;30.40;20.88;;;9.10;99.90;;;;;;5096262;28;20466;-70
2022/03/22 08:58:05;;;;;;;27.25;19.75;;;9.20;99.90;;;;;;5096100;28;20079;-71
2022/03/22 09:00:33;;;;;;;27.13;18.77;;;9.30;99.90;;;;;;5095636;28;20044;-70
2022/03/22 09:02:59;;;;;;;28.85;19.02;;;9.20;99.90;;;;;;5094660;28;20067;-69
2022/03/22 09:08:09;;;;;;;28.02;19.60;;;9.50;99.90;;;;;;5093522;28;20050;-72
2022/03/22 09:10:36;;;;;;;30.70;20.92;;;9.60;99.90;;;;;;5095085;28;20114;-71
2022/03/22 09:13:03;;;;;;;30.70;19.25;;;9.70;99.90;;;;;;5091545;28;20047;-71
2022/03/22 09:15:29;;;;;;;27.77;18.75;;;9.70;99.90;;;;;;5093886;28;20047;-71
2022/03/22 09:17:56;;;;;;;28.55;19.25;;;9.80;99.90;;;;;;5095002;28;20522;-71
2022/03/22 09:20:23;;;;;;;27.90;19.17;;;9.90;99.90;;;;;;5092432;28;20036;-71
2022/03/22 09:22:51;;;;;;;25.90;18.58;;;9.80;99.90;;;;;;5094945;28;20464;-71
2022/03/22 09:25:18;;;;;;;27.30;18.63;;;10.00;99.90;;;;;;5094841;28;20345;-71
2022/03/22 09:27:44;;;;;;;28.73;17.77;;;10.10;99.90;;;;;;5093730;28;20047;-71
2022/03/22 09:30:11;;;;;;;28.58;19.58;;;10.20;99.90;;;;;;5093739;28;20130;-71
2022/03/22 09:32:38;;;;;;;29.67;19.55;;;10.20;99.90;;;;;;5092685;28;20495;-71
2022/03/22 09:35:07;;;;;;;26.65;19.02;;;10.30;99.90;;;;;;5094625;28;20043;-71
2022/03/22 09:37:37;;;;;;;24.88;18.48;;;10.40;99.90;;;;;;5093333;28;20043;-71
2022/03/22 09:40:04;;;;;;;26.27;19.15;;;10.50;99.90;;;;;;5116627;27;20045;-71
2022/03/22 09:42:30;;;;;;;27.55;19.33;;;10.50;99.90;;;;;;5094493;28;20376;-71
2022/03/22 09:45:00;;;;;;;27.77;18.80;;;10.50;99.90;;;;;;5094407;28;20060;-71
2022/03/22 09:47:29;;;;;;;26.63;18.05;;;10.60;99.90;;;;;;5092657;28;20050;-70
2022/03/22 09:49:55;;;;;;;27.27;18.20;;;10.80;99.90;;;;;;5094469;28;20047;-71
2022/03/22 09:52:23;;;;;;;26.70;18.48;;;10.80;99.90;;;;;;5091672;28;20040;-71
2022/03/22 09:54:48;;;;;;;27.30;18.25;;;10.80;99.90;;;;;;5094322;28;20048;-71
2022/03/22 09:57:14;;;;;;;26.20;18.05;;;11.00;99.90;;;;;;5094247;28;20526;-71
2022/03/22 09:59:40;;;;;;;25.85;16.77;;;11.10;99.90;;;;;;5094457;28;20043;-71
2022/03/22 10:02:06;;;;;;;26.85;17.33;;;11.10;99.90;;;;;;5093677;28;20375;-69
2022/03/22 10:04:41;;;;;;;24.13;17.08;;;11.20;99.90;;;;;;5093168;28;20040;-71
2022/03/22 10:07:15;;;;;;;24.80;17.60;;;11.30;99.90;;;;;;5091038;28;20032;-70
2022/03/22 10:09:41;;;;;;;25.95;17.58;;;11.30;99.90;;;;;;5090340;28;20119;-70
2022/03/22 10:12:10;;;;;;;26.17;17.05;;;11.40;99.90;;;;;;5093047;28;20143;-69
2022/03/22 10:14:38;;;;;;;26.75;16.80;;;11.40;99.90;;;;;;5093987;28;20059;-70
2022/03/22 10:17:19;;;;;;;24.92;17.20;;;11.60;99.90;;;;;;5091759;28;20392;-69
2022/03/22 10:19:51;;;;;;;27.33;18.27;;;11.60;99.90;;;;;;5091821;28;20038;-71
2022/03/22 10:22:23;;;;;;;23.95;17.10;;;11.60;99.90;;;;;;5092678;28;20071;-72
2022/03/22 10:24:52;;;;;;;26.38;16.70;;;11.80;99.90;;;;;;5093889;28;20040;-71
2022/03/22 10:27:33;;;;;;;27.80;17.17;;;11.80;99.90;;;;;;5092442;28;20042;-73
2022/03/22 10:30:02;;;;;;;24.25;16.70;;;11.90;99.90;;;;;;5093420;28;20031;-74
2022/03/22 10:32:35;;;;;;;29.10;17.60;;;12.00;99.90;;;;;;5093562;28;20036;-73
2022/03/22 10:35:11;;;;;;;24.13;16.38;;;12.00;99.90;;;;;;5090897;28;20044;-70
2022/03/22 10:37:47;;;;;;;23.80;16.60;;;12.10;99.90;;;;;;5093238;28;20044;-69
2022/03/22 10:40:31;;;;;;;25.50;16.33;;;12.20;99.90;;;;;;5093369;28;20381;-69
2022/03/22 10:42:59;;;;;;;21.75;15.52;;;12.20;99.90;;;;;;5092933;28;20051;-70
2022/03/22 10:45:29;;;;;;;23.95;15.65;;;12.30;99.90;;;;;;5093513;28;20044;-71
2022/03/22 10:47:56;;;;;;;24.15;16.50;;;12.40;99.90;;;;;;5093409;28;20429;-71
2022/03/22 10:50:24;;;;;;;24.70;16.60;;;12.50;99.90;;;;;;5093522;28;20357;-71
2022/03/22 10:52:53;;;;;;;27.40;16.90;;;12.50;99.90;;;;;;5093433;28;20106;-70
2022/03/22 10:55:21;;;;;;;24.42;16.15;;;12.70;99.90;;;;;;5093460;28;20107;-70
2022/03/22 10:57:53;;;;;;;27.92;17.65;;;12.70;99.90;;;;;;5092427;28;20040;-70
2022/03/22 11:00:20;;;;;;;25.42;17.05;;;12.80;99.90;;;;;;5093445;28;20066;-71
2022/03/22 11:02:52;;;;;;;25.08;16.17;;;12.80;99.90;;;;;;5092940;28;20040;-71
2022/03/22 11:05:19;;;;;;;23.23;16.98;;;12.90;99.90;;;;;;5092107;28;20368;-70
2022/03/22 11:07:49;;;;;;;24.13;17.17;;;13.00;99.90;;;;;;5093294;28;20066;-71
2022/03/22 11:10:29;;;;;;;24.83;16.65;;;13.20;99.90;;;;;;5090866;28;20156;-70
2022/03/22 11:12:57;;;;;;;25.10;18.27;;;13.30;99.90;;;;;;5091576;28;20427;-71
2022/03/22 11:15:25;;;;;;;23.13;16.42;;;13.40;99.90;;;;;;5090382;28;20075;-71
2022/03/22 11:17:53;;;;;;;23.73;16.33;;;13.50;99.90;;;;;;5092170;28;20487;-70
2022/03/22 11:20:22;;;;;;;26.58;15.90;;;13.50;99.90;;;;;;5092378;28;20044;-70
2022/03/22 11:22:54;;;;;;;27.00;16.33;;;13.70;99.90;;;;;;5089520;28;20086;-70
2022/03/22 11:25:31;;;;;;;24.15;15.45;;;13.70;99.90;;;;;;5092617;28;20116;-70
2022/03/22 11:28:07;;;;;;;27.45;16.00;;;13.80;99.90;;;;;;5092087;28;20048;-70
2022/03/22 11:30:35;;;;;;;24.05;16.23;;;13.80;99.90;;;;;;5092403;28;20047;-70
2022/03/22 11:35:55;;;;;;;24.85;17.45;;;13.90;99.90;;;;;;5092362;28;20063;-70
2022/03/22 11:38:42;;;;;;;21.85;15.35;;;14.10;99.90;;;;;;5092812;28;20040;-70
2022/03/22 11:44:36;;;;;;;27.20;17.55;;;14.10;99.90;;;;;;5090855;28;20051;-72
2022/03/22 11:47:05;;;;;;;24.17;15.98;;;14.40;99.90;;;;;;5091537;28;20434;-72
2022/03/22 11:49:31;;;;;;;24.73;16.48;;;14.30;99.90;;;;;;5093030;28;20056;-73
2022/03/22 11:52:09;;;;;;;22.95;17.25;;;14.30;99.90;;;;;;5096589;28;20144;-72
2022/03/22 11:54:37;;;;;;;25.15;17.50;;;14.40;99.90;;;;;;5094314;28;20040;-72
2022/03/22 11:57:04;;;;;;;25.95;17.13;;;14.70;99.90;;;;;;5096531;28;20119;-73
2022/03/22 11:59:44;;;;;;;24.25;17.20;;;14.40;99.90;;;;;;5096432;28;20051;-72
2022/03/22 12:02:15;;;;;;;25.77;17.58;;;14.60;99.90;;;;;;5095948;28;20468;-73
2022/03/22 12:04:52;;;;;;;27.63;17.02;;;14.50;99.90;;;;;;5095387;28;20531;-73
2022/03/22 12:07:23;;;;;;;23.77;16.65;;;14.60;99.90;;;;;;5092900;28;20476;-72
2022/03/22 12:09:49;;;;;;;28.35;17.50;;;14.50;99.90;;;;;;5095040;28;20047;-73
2022/03/22 12:12:16;;;;;;;30.65;17.67;;;14.80;99.90;;;;;;5095352;28;20035;-73
2022/03/22 12:14:45;;;;;;;28.02;17.17;;;14.80;99.90;;;;;;5096503;28;20050;-73
2022/03/22 12:17:12;;;;;;;22.70;16.08;;;14.90;99.90;;;;;;5095798;28;20503;-72
2022/03/22 12:19:38;;;;;;;24.27;16.33;;;14.80;99.90;;;;;;5078226;28;20043;-72
2022/03/22 12:22:07;;;;;;;24.20;16.05;;;14.90;99.90;;;;;;5096078;28;20048;-73
2022/03/22 12:24:34;;;;;;;24.95;17.25;;;15.10;99.90;;;;;;5093359;28;20051;-73
2022/03/22 12:27:05;;;;;;;25.30;16.90;;;15.10;99.90;;;;;;5095847;28;20048;-73
2022/03/22 12:29:31;;;;;;;24.65;16.33;;;15.00;99.90;;;;;;5095829;28;20040;-72
2022/03/22 12:32:06;;;;;;;24.35;16.80;;;15.20;99.90;;;;;;5095495;28;20036;-73
2022/03/22 12:34:35;;;;;;;22.50;15.38;;;15.20;99.90;;;;;;5096254;28;20404;-72
2022/03/22 12:37:01;;;;;;;24.63;16.02;;;15.30;99.90;;;;;;5095863;28;20414;-73
2022/03/22 12:39:27;;;;;;;25.80;16.35;;;15.20;99.90;;;;;;5095799;28;20044;-73
2022/03/22 12:41:52;;;;;;;25.08;16.35;;;15.30;99.90;;;;;;5095071;28;20047;-73
2022/03/22 12:44:21;;;;;;;24.58;15.80;;;15.40;99.90;;;;;;5095793;28;20044;-73
2022/03/22 12:46:48;;;;;;;26.25;15.73;;;15.50;99.90;;;;;;5094365;28;20032;-74
2022/03/22 12:49:13;;;;;;;24.90;15.38;;;15.60;99.90;;;;;;5092879;28;20051;-73
2022/03/22 12:51:40;;;;;;;22.80;14.93;;;15.60;99.90;;;;;;5089298;28;20047;-71
2022/03/22 12:54:07;;;;;;;21.13;14.57;;;15.60;99.90;;;;;;5078781;28;20236;-71
2022/03/22 12:56:33;;;;;;;26.50;16.00;;;15.70;99.90;;;;;;5081272;28;20415;-70
2022/03/22 12:59:00;;;;;;;23.52;15.88;;;15.80;99.90;;;;;;5084680;28;20051;-72
2022/03/22 13:01:36;;;;;;;24.33;15.40;;;15.80;99.90;;;;;;5082751;28;20409;-72
2022/03/22 13:04:01;;;;;;;22.73;15.70;;;15.90;99.90;;;;;;5085142;28;20051;-73
2022/03/22 13:06:27;;;;;;;25.25;16.23;;;16.00;99.90;;;;;;5081420;28;20044;-72
2022/03/22 13:11:37;;;;;;;22.33;14.43;;;16.10;99.90;;;;;;5085156;28;20054;-72